sensor_id;sensor_type;location;lat;lon;timestamp;P1;durP1;ratioP1;P2;durP2;ratioP2
67737;SDS011;54534;43.612;1.572;2022-10-28T00:02:10;6.33;;;4.10;;
67737;SDS011;54534;43.612;1.572;2022-10-28T00:04:35;8.20;;;4.90;;
67737;SDS011;54534;43.612;1.572;2022-10-28T00:07:01;8.00;;;4.13;;
67737;SDS011;54534;43.612;1.572;2022-10-28T00:09:26;9.20;;;4.63;;
67737;SDS011;54534;43.612;1.572;2022-10-28T00:11:51;7.63;;;4.20;;
67737;SDS011;54534;43.612;1.572;2022-10-28T00:14:17;5.50;;;4.07;;
67737;SDS011;54534;43.612;1.572;2022-10-28T00:16:42;7.87;;;3.80;;
67737;SDS011;54534;43.612;1.572;2022-10-28T00:19:09;12.00;;;4.20;;
67737;SDS011;54534;43.612;1.572;2022-10-28T00:21:36;8.07;;;4.37;;
67737;SDS011;54534;43.612;1.572;2022-10-28T00:24:02;6.90;;;4.20;;
67737;SDS011;54534;43.612;1.572;2022-10-28T00:26:29;8.77;;;4.47;;
67737;SDS011;54534;43.612;1.572;2022-10-28T00:28:57;5.40;;;3.83;;
67737;SDS011;54534;43.612;1.572;2022-10-28T00:31:25;6.57;;;3.80;;
67737;SDS011;54534;43.612;1.572;2022-10-28T00:33:51;6.47;;;3.73;;
67737;SDS011;54534;43.612;1.572;2022-10-28T00:36:21;8.17;;;4.50;;
67737;SDS011;54534;43.612;1.572;2022-10-28T00:38:49;6.80;;;4.20;;
67737;SDS011;54534;43.612;1.572;2022-10-28T00:41:17;13.00;;;4.27;;
67737;SDS011;54534;43.612;1.572;2022-10-28T00:43:50;7.77;;;4.20;;
67737;SDS011;54534;43.612;1.572;2022-10-28T00:46:19;8.25;;;4.13;;
67737;SDS011;54534;43.612;1.572;2022-10-28T00:51:34;6.00;;;3.67;;
67737;SDS011;54534;43.612;1.572;2022-10-28T00:54:00;7.07;;;4.17;;
67737;SDS011;54534;43.612;1.572;2022-10-28T00:56:28;5.60;;;3.93;;
67737;SDS011;54534;43.612;1.572;2022-10-28T00:58:58;7.37;;;4.33;;
67737;SDS011;54534;43.612;1.572;2022-10-28T01:01:27;8.63;;;4.17;;
67737;SDS011;54534;43.612;1.572;2022-10-28T01:03:53;7.20;;;4.80;;
67737;SDS011;54534;43.612;1.572;2022-10-28T01:06:20;7.60;;;4.33;;
67737;SDS011;54534;43.612;1.572;2022-10-28T01:08:47;6.10;;;4.30;;
67737;SDS011;54534;43.612;1.572;2022-10-28T01:11:26;6.23;;;3.80;;
67737;SDS011;54534;43.612;1.572;2022-10-28T01:17:17;7.50;;;3.90;;
67737;SDS011;54534;43.612;1.572;2022-10-28T01:30:24;5.50;;;3.70;;
67737;SDS011;54534;43.612;1.572;2022-10-28T01:36:16;6.60;;;4.13;;
67737;SDS011;54534;43.612;1.572;2022-10-28T01:38:50;4.33;;;3.63;;
67737;SDS011;54534;43.612;1.572;2022-10-28T01:41:27;5.13;;;3.87;;
67737;SDS011;54534;43.612;1.572;2022-10-28T01:44:00;9.17;;;4.17;;
67737;SDS011;54534;43.612;1.572;2022-10-28T01:46:39;7.17;;;3.70;;
67737;SDS011;54534;43.612;1.572;2022-10-28T01:49:15;10.33;;;3.50;;
67737;SDS011;54534;43.612;1.572;2022-10-28T01:51:47;7.67;;;3.87;;
67737;SDS011;54534;43.612;1.572;2022-10-28T01:54:18;4.97;;;3.57;;
67737;SDS011;54534;43.612;1.572;2022-10-28T01:56:46;5.22;;;3.55;;
67737;SDS011;54534;43.612;1.572;2022-10-28T01:59:18;5.63;;;3.97;;
67737;SDS011;54534;43.612;1.572;2022-10-28T02:01:46;5.80;;;3.80;;
67737;SDS011;54534;43.612;1.572;2022-10-28T02:04:12;5.50;;;3.50;;
67737;SDS011;54534;43.612;1.572;2022-10-28T02:06:38;8.47;;;3.60;;
67737;SDS011;54534;43.612;1.572;2022-10-28T02:12:38;5.03;;;4.00;;
67737;SDS011;54534;43.612;1.572;2022-10-28T02:23:01;8.47;;;4.00;;
67737;SDS011;54534;43.612;1.572;2022-10-28T02:25:45;6.80;;;4.10;;
67737;SDS011;54534;43.612;1.572;2022-10-28T02:28:22;4.90;;;3.63;;
67737;SDS011;54534;43.612;1.572;2022-10-28T02:31:21;7.10;;;3.30;;
67737;SDS011;54534;43.612;1.572;2022-10-28T02:33:49;8.52;;;4.13;;
67737;SDS011;54534;43.612;1.572;2022-10-28T02:36:18;4.90;;;3.43;;
67737;SDS011;54534;43.612;1.572;2022-10-28T02:38:48;7.23;;;3.63;;
67737;SDS011;54534;43.612;1.572;2022-10-28T02:44:08;5.90;;;3.30;;
67737;SDS011;54534;43.612;1.572;2022-10-28T02:46:38;6.07;;;3.70;;
67737;SDS011;54534;43.612;1.572;2022-10-28T02:51:35;5.90;;;3.67;;
67737;SDS011;54534;43.612;1.572;2022-10-28T02:54:08;6.90;;;4.20;;
67737;SDS011;54534;43.612;1.572;2022-10-28T02:56:41;4.70;;;3.50;;
67737;SDS011;54534;43.612;1.572;2022-10-28T02:59:15;6.37;;;3.73;;
67737;SDS011;54534;43.612;1.572;2022-10-28T03:01:41;6.57;;;3.83;;
67737;SDS011;54534;43.612;1.572;2022-10-28T03:04:06;4.53;;;3.70;;
67737;SDS011;54534;43.612;1.572;2022-10-28T03:06:32;4.63;;;3.70;;
67737;SDS011;54534;43.612;1.572;2022-10-28T03:08:57;5.50;;;3.17;;
67737;SDS011;54534;43.612;1.572;2022-10-28T03:11:22;4.93;;;3.70;;
67737;SDS011;54534;43.612;1.572;2022-10-28T03:13:48;4.43;;;3.20;;
67737;SDS011;54534;43.612;1.572;2022-10-28T03:16:13;8.37;;;3.63;;
67737;SDS011;54534;43.612;1.572;2022-10-28T03:18:39;5.90;;;3.70;;
67737;SDS011;54534;43.612;1.572;2022-10-28T03:21:04;5.00;;;3.20;;
67737;SDS011;54534;43.612;1.572;2022-10-28T03:23:29;6.20;;;3.77;;
67737;SDS011;54534;43.612;1.572;2022-10-28T03:25:55;6.87;;;3.27;;
67737;SDS011;54534;43.612;1.572;2022-10-28T03:28:20;4.47;;;3.40;;
67737;SDS011;54534;43.612;1.572;2022-10-28T03:30:46;6.67;;;3.17;;
67737;SDS011;54534;43.612;1.572;2022-10-28T03:33:11;5.03;;;3.60;;
67737;SDS011;54534;43.612;1.572;2022-10-28T03:35:36;4.07;;;3.37;;
67737;SDS011;54534;43.612;1.572;2022-10-28T03:38:02;4.67;;;3.13;;
67737;SDS011;54534;43.612;1.572;2022-10-28T03:40:27;6.57;;;3.63;;
67737;SDS011;54534;43.612;1.572;2022-10-28T03:42:53;4.00;;;3.40;;
67737;SDS011;54534;43.612;1.572;2022-10-28T03:45:18;5.00;;;3.47;;
67737;SDS011;54534;43.612;1.572;2022-10-28T03:47:44;5.67;;;4.00;;
67737;SDS011;54534;43.612;1.572;2022-10-28T03:50:09;5.97;;;3.40;;
67737;SDS011;54534;43.612;1.572;2022-10-28T03:52:34;4.37;;;3.30;;
67737;SDS011;54534;43.612;1.572;2022-10-28T03:55:00;4.33;;;3.43;;
67737;SDS011;54534;43.612;1.572;2022-10-28T03:57:30;5.30;;;3.20;;
67737;SDS011;54534;43.612;1.572;2022-10-28T03:59:56;5.63;;;3.67;;
67737;SDS011;54534;43.612;1.572;2022-10-28T04:02:21;6.70;;;3.60;;
67737;SDS011;54534;43.612;1.572;2022-10-28T04:04:47;6.10;;;4.23;;
67737;SDS011;54534;43.612;1.572;2022-10-28T04:07:12;5.17;;;3.43;;
67737;SDS011;54534;43.612;1.572;2022-10-28T04:09:38;5.43;;;3.43;;
67737;SDS011;54534;43.612;1.572;2022-10-28T04:12:04;5.27;;;3.40;;
67737;SDS011;54534;43.612;1.572;2022-10-28T04:14:30;3.70;;;3.10;;
67737;SDS011;54534;43.612;1.572;2022-10-28T04:16:56;5.47;;;3.90;;
67737;SDS011;54534;43.612;1.572;2022-10-28T04:19:21;8.20;;;3.43;;
67737;SDS011;54534;43.612;1.572;2022-10-28T04:21:46;8.37;;;3.57;;
67737;SDS011;54534;43.612;1.572;2022-10-28T04:24:12;5.17;;;3.27;;
67737;SDS011;54534;43.612;1.572;2022-10-28T04:26:37;6.10;;;3.53;;
67737;SDS011;54534;43.612;1.572;2022-10-28T04:29:03;5.10;;;3.40;;
67737;SDS011;54534;43.612;1.572;2022-10-28T04:31:28;4.03;;;3.10;;
67737;SDS011;54534;43.612;1.572;2022-10-28T04:33:53;5.07;;;3.50;;
67737;SDS011;54534;43.612;1.572;2022-10-28T04:36:19;6.20;;;3.20;;
67737;SDS011;54534;43.612;1.572;2022-10-28T04:38:44;5.40;;;3.63;;
67737;SDS011;54534;43.612;1.572;2022-10-28T04:41:13;7.33;;;3.17;;
67737;SDS011;54534;43.612;1.572;2022-10-28T04:46:04;8.20;;;3.03;;
67737;SDS011;54534;43.612;1.572;2022-10-28T04:48:32;8.17;;;3.53;;
67737;SDS011;54534;43.612;1.572;2022-10-28T04:50:58;5.28;;;2.97;;
67737;SDS011;54534;43.612;1.572;2022-10-28T04:53:24;5.77;;;3.17;;
67737;SDS011;54534;43.612;1.572;2022-10-28T04:55:49;7.43;;;3.57;;
67737;SDS011;54534;43.612;1.572;2022-10-28T04:58:15;5.47;;;3.60;;
67737;SDS011;54534;43.612;1.572;2022-10-28T05:00:40;3.83;;;3.23;;
67737;SDS011;54534;43.612;1.572;2022-10-28T05:03:05;8.17;;;4.00;;
67737;SDS011;54534;43.612;1.572;2022-10-28T05:05:31;10.03;;;4.00;;
67737;SDS011;54534;43.612;1.572;2022-10-28T05:07:56;5.50;;;3.67;;
67737;SDS011;54534;43.612;1.572;2022-10-28T05:10:22;8.30;;;3.43;;
67737;SDS011;54534;43.612;1.572;2022-10-28T05:12:47;5.77;;;3.70;;
67737;SDS011;54534;43.612;1.572;2022-10-28T05:15:13;6.00;;;3.07;;
67737;SDS011;54534;43.612;1.572;2022-10-28T05:17:42;4.77;;;3.57;;
67737;SDS011;54534;43.612;1.572;2022-10-28T05:20:09;7.33;;;3.83;;
67737;SDS011;54534;43.612;1.572;2022-10-28T05:22:36;5.50;;;3.50;;
67737;SDS011;54534;43.612;1.572;2022-10-28T05:25:02;9.27;;;4.27;;
67737;SDS011;54534;43.612;1.572;2022-10-28T05:27:28;7.83;;;3.43;;
67737;SDS011;54534;43.612;1.572;2022-10-28T05:29:53;6.13;;;3.53;;
67737;SDS011;54534;43.612;1.572;2022-10-28T05:32:18;6.63;;;3.47;;
67737;SDS011;54534;43.612;1.572;2022-10-28T05:34:44;7.37;;;3.87;;
67737;SDS011;54534;43.612;1.572;2022-10-28T05:37:09;4.13;;;3.50;;
67737;SDS011;54534;43.612;1.572;2022-10-28T05:39:35;11.67;;;3.90;;
67737;SDS011;54534;43.612;1.572;2022-10-28T05:42:00;11.67;;;3.77;;
67737;SDS011;54534;43.612;1.572;2022-10-28T05:44:25;8.33;;;3.87;;
67737;SDS011;54534;43.612;1.572;2022-10-28T05:46:51;9.70;;;4.70;;
67737;SDS011;54534;43.612;1.572;2022-10-28T05:49:18;6.30;;;3.53;;
67737;SDS011;54534;43.612;1.572;2022-10-28T05:51:44;5.50;;;3.60;;
67737;SDS011;54534;43.612;1.572;2022-10-28T05:54:10;6.60;;;3.43;;
67737;SDS011;54534;43.612;1.572;2022-10-28T05:56:36;6.37;;;3.07;;
67737;SDS011;54534;43.612;1.572;2022-10-28T05:59:01;10.33;;;3.40;;
67737;SDS011;54534;43.612;1.572;2022-10-28T06:01:27;7.00;;;3.80;;
67737;SDS011;54534;43.612;1.572;2022-10-28T06:03:52;7.93;;;3.13;;
67737;SDS011;54534;43.612;1.572;2022-10-28T06:06:18;8.33;;;4.07;;
67737;SDS011;54534;43.612;1.572;2022-10-28T06:08:43;8.10;;;3.77;;
67737;SDS011;54534;43.612;1.572;2022-10-28T06:11:09;7.23;;;3.83;;
67737;SDS011;54534;43.612;1.572;2022-10-28T06:13:34;8.77;;;3.87;;
67737;SDS011;54534;43.612;1.572;2022-10-28T06:15:59;6.30;;;3.83;;
67737;SDS011;54534;43.612;1.572;2022-10-28T06:18:25;7.67;;;3.90;;
67737;SDS011;54534;43.612;1.572;2022-10-28T06:20:53;7.10;;;3.40;;
67737;SDS011;54534;43.612;1.572;2022-10-28T06:23:23;10.13;;;3.70;;
67737;SDS011;54534;43.612;1.572;2022-10-28T06:25:49;5.93;;;3.40;;
67737;SDS011;54534;43.612;1.572;2022-10-28T06:28:15;17.07;;;4.20;;
67737;SDS011;54534;43.612;1.572;2022-10-28T06:30:41;7.37;;;4.00;;
67737;SDS011;54534;43.612;1.572;2022-10-28T06:33:07;7.10;;;3.37;;
67737;SDS011;54534;43.612;1.572;2022-10-28T06:35:32;5.90;;;3.43;;
67737;SDS011;54534;43.612;1.572;2022-10-28T06:37:58;9.37;;;3.23;;
67737;SDS011;54534;43.612;1.572;2022-10-28T06:40:23;13.17;;;3.90;;
67737;SDS011;54534;43.612;1.572;2022-10-28T06:42:59;4.33;;;3.63;;
67737;SDS011;54534;43.612;1.572;2022-10-28T06:47:57;11.90;;;3.90;;
67737;SDS011;54534;43.612;1.572;2022-10-28T06:50:24;5.97;;;3.30;;
67737;SDS011;54534;43.612;1.572;2022-10-28T06:52:50;5.37;;;3.40;;
67737;SDS011;54534;43.612;1.572;2022-10-28T06:55:15;4.80;;;3.17;;
67737;SDS011;54534;43.612;1.572;2022-10-28T06:57:41;5.50;;;3.33;;
67737;SDS011;54534;43.612;1.572;2022-10-28T07:00:06;6.30;;;3.90;;
67737;SDS011;54534;43.612;1.572;2022-10-28T07:02:33;5.93;;;3.07;;
67737;SDS011;54534;43.612;1.572;2022-10-28T07:04:58;6.47;;;3.77;;
67737;SDS011;54534;43.612;1.572;2022-10-28T07:07:23;5.70;;;3.20;;
67737;SDS011;54534;43.612;1.572;2022-10-28T07:09:49;10.13;;;3.67;;
67737;SDS011;54534;43.612;1.572;2022-10-28T07:12:14;5.40;;;3.20;;
67737;SDS011;54534;43.612;1.572;2022-10-28T07:14:40;5.50;;;3.40;;
67737;SDS011;54534;43.612;1.572;2022-10-28T07:17:05;7.00;;;3.30;;
67737;SDS011;54534;43.612;1.572;2022-10-28T07:19:30;6.13;;;4.17;;
67737;SDS011;54534;43.612;1.572;2022-10-28T07:21:56;7.10;;;3.53;;
67737;SDS011;54534;43.612;1.572;2022-10-28T07:24:21;5.27;;;3.53;;
67737;SDS011;54534;43.612;1.572;2022-10-28T07:26:47;6.63;;;3.47;;
67737;SDS011;54534;43.612;1.572;2022-10-28T07:29:15;6.00;;;3.53;;
67737;SDS011;54534;43.612;1.572;2022-10-28T07:31:41;6.77;;;3.50;;
67737;SDS011;54534;43.612;1.572;2022-10-28T07:34:07;10.73;;;3.53;;
67737;SDS011;54534;43.612;1.572;2022-10-28T07:36:32;5.13;;;3.27;;
67737;SDS011;54534;43.612;1.572;2022-10-28T07:38:58;6.87;;;3.63;;
67737;SDS011;54534;43.612;1.572;2022-10-28T07:41:23;5.53;;;3.50;;
67737;SDS011;54534;43.612;1.572;2022-10-28T07:43:49;6.93;;;3.00;;
67737;SDS011;54534;43.612;1.572;2022-10-28T07:46:15;5.87;;;3.30;;
67737;SDS011;54534;43.612;1.572;2022-10-28T07:48:43;8.13;;;3.23;;
67737;SDS011;54534;43.612;1.572;2022-10-28T07:51:09;6.83;;;3.97;;
67737;SDS011;54534;43.612;1.572;2022-10-28T07:53:36;5.43;;;3.47;;
67737;SDS011;54534;43.612;1.572;2022-10-28T07:56:03;9.00;;;3.07;;
67737;SDS011;54534;43.612;1.572;2022-10-28T07:58:31;5.03;;;3.30;;
67737;SDS011;54534;43.612;1.572;2022-10-28T08:01:00;8.43;;;4.03;;
67737;SDS011;54534;43.612;1.572;2022-10-28T08:03:26;5.30;;;2.93;;
67737;SDS011;54534;43.612;1.572;2022-10-28T08:05:58;4.90;;;2.97;;
67737;SDS011;54534;43.612;1.572;2022-10-28T08:08:25;9.07;;;4.30;;
67737;SDS011;54534;43.612;1.572;2022-10-28T08:10:50;7.30;;;3.60;;
67737;SDS011;54534;43.612;1.572;2022-10-28T08:13:15;6.23;;;3.00;;
67737;SDS011;54534;43.612;1.572;2022-10-28T08:15:41;7.23;;;3.27;;
67737;SDS011;54534;43.612;1.572;2022-10-28T08:18:06;5.30;;;3.00;;
67737;SDS011;54534;43.612;1.572;2022-10-28T08:20:31;6.97;;;3.37;;
67737;SDS011;54534;43.612;1.572;2022-10-28T08:22:57;6.80;;;3.40;;
67737;SDS011;54534;43.612;1.572;2022-10-28T08:25:22;6.50;;;3.47;;
67737;SDS011;54534;43.612;1.572;2022-10-28T08:27:48;7.00;;;3.57;;
67737;SDS011;54534;43.612;1.572;2022-10-28T08:30:13;4.73;;;3.40;;
67737;SDS011;54534;43.612;1.572;2022-10-28T08:32:39;8.27;;;3.93;;
67737;SDS011;54534;43.612;1.572;2022-10-28T08:35:04;7.30;;;3.33;;
67737;SDS011;54534;43.612;1.572;2022-10-28T08:37:30;5.50;;;3.37;;
67737;SDS011;54534;43.612;1.572;2022-10-28T08:39:55;3.53;;;2.93;;
67737;SDS011;54534;43.612;1.572;2022-10-28T08:42:54;6.70;;;3.10;;
67737;SDS011;54534;43.612;1.572;2022-10-28T08:47:49;8.03;;;3.30;;
67737;SDS011;54534;43.612;1.572;2022-10-28T08:50:23;4.57;;;3.47;;
67737;SDS011;54534;43.612;1.572;2022-10-28T08:52:57;4.27;;;3.10;;
67737;SDS011;54534;43.612;1.572;2022-10-28T08:55:29;7.50;;;3.20;;
67737;SDS011;54534;43.612;1.572;2022-10-28T08:58:06;7.63;;;3.40;;
67737;SDS011;54534;43.612;1.572;2022-10-28T09:00:36;4.83;;;2.87;;
67737;SDS011;54534;43.612;1.572;2022-10-28T09:05:35;6.83;;;3.30;;
67737;SDS011;54534;43.612;1.572;2022-10-28T09:08:02;5.20;;;3.13;;
67737;SDS011;54534;43.612;1.572;2022-10-28T09:13:30;6.50;;;3.57;;
67737;SDS011;54534;43.612;1.572;2022-10-28T09:16:27;5.23;;;3.30;;
67737;SDS011;54534;43.612;1.572;2022-10-28T09:19:13;5.73;;;3.40;;
67737;SDS011;54534;43.612;1.572;2022-10-28T09:21:49;5.47;;;3.17;;
67737;SDS011;54534;43.612;1.572;2022-10-28T09:24:20;8.83;;;3.53;;
67737;SDS011;54534;43.612;1.572;2022-10-28T09:35:10;7.60;;;3.60;;
67737;SDS011;54534;43.612;1.572;2022-10-28T09:37:45;7.00;;;3.83;;
67737;SDS011;54534;43.612;1.572;2022-10-28T09:40:22;4.77;;;3.27;;
67737;SDS011;54534;43.612;1.572;2022-10-28T09:43:13;6.93;;;3.40;;
67737;SDS011;54534;43.612;1.572;2022-10-28T09:45:45;5.97;;;3.13;;
67737;SDS011;54534;43.612;1.572;2022-10-28T09:48:16;4.57;;;2.73;;
67737;SDS011;54534;43.612;1.572;2022-10-28T09:50:48;11.37;;;4.23;;
67737;SDS011;54534;43.612;1.572;2022-10-28T09:53:38;6.63;;;2.90;;
67737;SDS011;54534;43.612;1.572;2022-10-28T09:56:08;5.10;;;2.83;;
67737;SDS011;54534;43.612;1.572;2022-10-28T09:58:34;4.60;;;3.33;;
67737;SDS011;54534;43.612;1.572;2022-10-28T10:01:02;6.10;;;3.40;;
67737;SDS011;54534;43.612;1.572;2022-10-28T10:03:29;5.13;;;3.40;;
67737;SDS011;54534;43.612;1.572;2022-10-28T10:05:55;5.87;;;3.23;;
67737;SDS011;54534;43.612;1.572;2022-10-28T10:08:26;7.83;;;3.10;;
67737;SDS011;54534;43.612;1.572;2022-10-28T10:13:21;6.00;;;2.67;;
67737;SDS011;54534;43.612;1.572;2022-10-28T10:15:54;4.63;;;3.13;;
67737;SDS011;54534;43.612;1.572;2022-10-28T10:18:26;6.63;;;3.10;;
67737;SDS011;54534;43.612;1.572;2022-10-28T10:25:54;8.40;;;3.40;;
67737;SDS011;54534;43.612;1.572;2022-10-28T10:28:23;5.63;;;3.50;;
67737;SDS011;54534;43.612;1.572;2022-10-28T10:30:51;6.77;;;3.00;;
67737;SDS011;54534;43.612;1.572;2022-10-28T10:35:56;9.53;;;4.00;;
67737;SDS011;54534;43.612;1.572;2022-10-28T10:38:26;6.83;;;3.40;;
67737;SDS011;54534;43.612;1.572;2022-10-28T10:40:54;4.40;;;2.93;;
67737;SDS011;54534;43.612;1.572;2022-10-28T10:46:01;5.13;;;3.50;;
67737;SDS011;54534;43.612;1.572;2022-10-28T10:48:29;4.27;;;3.30;;
67737;SDS011;54534;43.612;1.572;2022-10-28T10:53:40;9.83;;;3.20;;
67737;SDS011;54534;43.612;1.572;2022-10-28T10:56:21;6.00;;;3.10;;
67737;SDS011;54534;43.612;1.572;2022-10-28T10:58:53;7.50;;;3.30;;
67737;SDS011;54534;43.612;1.572;2022-10-28T11:01:22;7.65;;;3.08;;
67737;SDS011;54534;43.612;1.572;2022-10-28T11:06:30;5.30;;;3.13;;
67737;SDS011;54534;43.612;1.572;2022-10-28T11:08:58;7.27;;;3.60;;
67737;SDS011;54534;43.612;1.572;2022-10-28T11:11:31;7.10;;;3.20;;
67737;SDS011;54534;43.612;1.572;2022-10-28T11:19:19;7.57;;;3.03;;
67737;SDS011;54534;43.612;1.572;2022-10-28T11:21:49;6.30;;;3.67;;
67737;SDS011;54534;43.612;1.572;2022-10-28T11:29:51;9.20;;;3.47;;
67737;SDS011;54534;43.612;1.572;2022-10-28T11:32:19;4.00;;;3.20;;
67737;SDS011;54534;43.612;1.572;2022-10-28T11:45:54;8.37;;;3.33;;
67737;SDS011;54534;43.612;1.572;2022-10-28T11:51:49;6.67;;;3.30;;
67737;SDS011;54534;43.612;1.572;2022-10-28T11:57:29;5.50;;;3.33;;
67737;SDS011;54534;43.612;1.572;2022-10-28T12:06:39;6.53;;;3.40;;
67737;SDS011;54534;43.612;1.572;2022-10-28T12:09:20;7.57;;;3.43;;
67737;SDS011;54534;43.612;1.572;2022-10-28T12:15:08;4.95;;;2.90;;
67737;SDS011;54534;43.612;1.572;2022-10-28T12:17:41;6.47;;;3.00;;
67737;SDS011;54534;43.612;1.572;2022-10-28T12:20:20;6.63;;;3.53;;
67737;SDS011;54534;43.612;1.572;2022-10-28T12:25:23;5.47;;;3.10;;
67737;SDS011;54534;43.612;1.572;2022-10-28T12:27:54;4.60;;;2.83;;
67737;SDS011;54534;43.612;1.572;2022-10-28T12:30:26;6.00;;;3.03;;
67737;SDS011;54534;43.612;1.572;2022-10-28T12:32:56;5.97;;;3.27;;
67737;SDS011;54534;43.612;1.572;2022-10-28T12:35:29;5.90;;;3.00;;
67737;SDS011;54534;43.612;1.572;2022-10-28T12:38:09;7.37;;;3.47;;
67737;SDS011;54534;43.612;1.572;2022-10-28T12:40:43;6.63;;;3.03;;
67737;SDS011;54534;43.612;1.572;2022-10-28T12:43:17;8.13;;;3.63;;
67737;SDS011;54534;43.612;1.572;2022-10-28T12:45:53;5.00;;;3.47;;
67737;SDS011;54534;43.612;1.572;2022-10-28T12:48:34;5.93;;;3.30;;
67737;SDS011;54534;43.612;1.572;2022-10-28T12:51:11;4.80;;;3.05;;
67737;SDS011;54534;43.612;1.572;2022-10-28T12:53:53;5.33;;;2.93;;
67737;SDS011;54534;43.612;1.572;2022-10-28T12:56:25;7.93;;;3.20;;
67737;SDS011;54534;43.612;1.572;2022-10-28T12:59:12;5.77;;;2.83;;
67737;SDS011;54534;43.612;1.572;2022-10-28T13:01:42;5.07;;;3.30;;
67737;SDS011;54534;43.612;1.572;2022-10-28T13:04:11;7.95;;;3.28;;
67737;SDS011;54534;43.612;1.572;2022-10-28T13:23:04;8.20;;;3.17;;
67737;SDS011;54534;43.612;1.572;2022-10-28T13:28:19;7.63;;;3.10;;
67737;SDS011;54534;43.612;1.572;2022-10-28T13:30:52;5.35;;;2.88;;
67737;SDS011;54534;43.612;1.572;2022-10-28T13:33:19;5.60;;;3.37;;
67737;SDS011;54534;43.612;1.572;2022-10-28T13:35:48;5.60;;;3.60;;
67737;SDS011;54534;43.612;1.572;2022-10-28T13:38:14;5.77;;;3.47;;
67737;SDS011;54534;43.612;1.572;2022-10-28T13:54:29;5.53;;;3.40;;
67737;SDS011;54534;43.612;1.572;2022-10-28T13:59:56;8.30;;;3.10;;
67737;SDS011;54534;43.612;1.572;2022-10-28T14:08:17;5.33;;;3.17;;
67737;SDS011;54534;43.612;1.572;2022-10-28T14:13:47;6.30;;;3.40;;
67737;SDS011;54534;43.612;1.572;2022-10-28T14:18:51;6.57;;;3.40;;
67737;SDS011;54534;43.612;1.572;2022-10-28T14:21:24;7.13;;;3.57;;
67737;SDS011;54534;43.612;1.572;2022-10-28T14:24:13;7.47;;;3.43;;
67737;SDS011;54534;43.612;1.572;2022-10-28T14:29:30;7.20;;;2.93;;
67737;SDS011;54534;43.612;1.572;2022-10-28T14:31:56;5.93;;;3.07;;
67737;SDS011;54534;43.612;1.572;2022-10-28T14:36:57;7.33;;;3.27;;
67737;SDS011;54534;43.612;1.572;2022-10-28T14:39:37;4.00;;;3.10;;
67737;SDS011;54534;43.612;1.572;2022-10-28T14:44:44;4.60;;;3.10;;
67737;SDS011;54534;43.612;1.572;2022-10-28T14:52:57;7.37;;;3.33;;
67737;SDS011;54534;43.612;1.572;2022-10-28T14:55:26;4.53;;;3.13;;
67737;SDS011;54534;43.612;1.572;2022-10-28T14:58:10;6.93;;;3.38;;
67737;SDS011;54534;43.612;1.572;2022-10-28T15:00:39;5.17;;;3.20;;
67737;SDS011;54534;43.612;1.572;2022-10-28T15:03:11;4.43;;;3.40;;
67737;SDS011;54534;43.612;1.572;2022-10-28T15:05:38;6.17;;;3.13;;
67737;SDS011;54534;43.612;1.572;2022-10-28T15:08:03;4.57;;;3.30;;
67737;SDS011;54534;43.612;1.572;2022-10-28T15:10:30;7.93;;;4.00;;
67737;SDS011;54534;43.612;1.572;2022-10-28T15:13:00;5.37;;;3.83;;
67737;SDS011;54534;43.612;1.572;2022-10-28T15:17:53;4.60;;;2.87;;
67737;SDS011;54534;43.612;1.572;2022-10-28T15:22:47;4.90;;;3.30;;
67737;SDS011;54534;43.612;1.572;2022-10-28T15:25:13;5.63;;;3.13;;
67737;SDS011;54534;43.612;1.572;2022-10-28T15:27:41;7.47;;;3.97;;
67737;SDS011;54534;43.612;1.572;2022-10-28T15:32:43;6.00;;;2.97;;
67737;SDS011;54534;43.612;1.572;2022-10-28T15:37:53;5.00;;;3.20;;
67737;SDS011;54534;43.612;1.572;2022-10-28T15:40:20;4.77;;;3.60;;
67737;SDS011;54534;43.612;1.572;2022-10-28T15:42:51;7.60;;;3.27;;
67737;SDS011;54534;43.612;1.572;2022-10-28T15:45:24;4.23;;;3.10;;
67737;SDS011;54534;43.612;1.572;2022-10-28T15:47:51;4.07;;;3.20;;
67737;SDS011;54534;43.612;1.572;2022-10-28T15:52:48;4.93;;;3.33;;
67737;SDS011;54534;43.612;1.572;2022-10-28T15:58:02;7.77;;;3.60;;
67737;SDS011;54534;43.612;1.572;2022-10-28T16:00:31;5.03;;;3.23;;
67737;SDS011;54534;43.612;1.572;2022-10-28T16:02:58;3.97;;;3.13;;
67737;SDS011;54534;43.612;1.572;2022-10-28T16:08:01;8.67;;;3.73;;
67737;SDS011;54534;43.612;1.572;2022-10-28T16:10:36;5.93;;;3.30;;
67737;SDS011;54534;43.612;1.572;2022-10-28T16:13:16;5.87;;;3.20;;
67737;SDS011;54534;43.612;1.572;2022-10-28T16:15:44;8.60;;;3.20;;
67737;SDS011;54534;43.612;1.572;2022-10-28T16:18:13;5.60;;;3.33;;
67737;SDS011;54534;43.612;1.572;2022-10-28T16:20:39;13.03;;;3.67;;
67737;SDS011;54534;43.612;1.572;2022-10-28T16:23:09;8.77;;;3.23;;
67737;SDS011;54534;43.612;1.572;2022-10-28T16:25:39;9.47;;;3.33;;
67737;SDS011;54534;43.612;1.572;2022-10-28T16:28:07;7.73;;;3.73;;
67737;SDS011;54534;43.612;1.572;2022-10-28T16:30:41;5.87;;;3.43;;
67737;SDS011;54534;43.612;1.572;2022-10-28T16:33:06;5.57;;;2.93;;
67737;SDS011;54534;43.612;1.572;2022-10-28T16:35:33;11.30;;;3.30;;
67737;SDS011;54534;43.612;1.572;2022-10-28T16:37:59;7.03;;;3.43;;
67737;SDS011;54534;43.612;1.572;2022-10-28T16:40:24;13.40;;;3.40;;
67737;SDS011;54534;43.612;1.572;2022-10-28T16:42:49;7.83;;;3.47;;
67737;SDS011;54534;43.612;1.572;2022-10-28T16:45:16;13.87;;;3.80;;
67737;SDS011;54534;43.612;1.572;2022-10-28T16:47:42;10.57;;;3.67;;
67737;SDS011;54534;43.612;1.572;2022-10-28T16:50:08;13.03;;;4.23;;
67737;SDS011;54534;43.612;1.572;2022-10-28T16:52:34;13.47;;;4.30;;
67737;SDS011;54534;43.612;1.572;2022-10-28T16:54:59;13.00;;;4.70;;
67737;SDS011;54534;43.612;1.572;2022-10-28T16:57:25;7.77;;;4.20;;
67737;SDS011;54534;43.612;1.572;2022-10-28T16:59:50;12.77;;;4.37;;
67737;SDS011;54534;43.612;1.572;2022-10-28T17:04:51;13.00;;;5.17;;
67737;SDS011;54534;43.612;1.572;2022-10-28T17:07:16;14.73;;;5.73;;
67737;SDS011;54534;43.612;1.572;2022-10-28T17:09:42;14.83;;;6.20;;
67737;SDS011;54534;43.612;1.572;2022-10-28T17:12:11;13.87;;;4.63;;
67737;SDS011;54534;43.612;1.572;2022-10-28T17:14:38;14.30;;;6.30;;
67737;SDS011;54534;43.612;1.572;2022-10-28T17:17:03;17.20;;;4.57;;
67737;SDS011;54534;43.612;1.572;2022-10-28T17:19:28;14.57;;;6.30;;
67737;SDS011;54534;43.612;1.572;2022-10-28T17:21:54;23.23;;;6.23;;
67737;SDS011;54534;43.612;1.572;2022-10-28T17:24:19;15.13;;;5.20;;
67737;SDS011;54534;43.612;1.572;2022-10-28T17:26:46;19.47;;;5.17;;
67737;SDS011;54534;43.612;1.572;2022-10-28T17:29:12;14.50;;;6.23;;
67737;SDS011;54534;43.612;1.572;2022-10-28T17:31:37;16.93;;;5.83;;
67737;SDS011;54534;43.612;1.572;2022-10-28T17:34:03;17.33;;;5.17;;
67737;SDS011;54534;43.612;1.572;2022-10-28T17:36:28;16.07;;;5.10;;
67737;SDS011;54534;43.612;1.572;2022-10-28T17:38:53;16.07;;;4.87;;
67737;SDS011;54534;43.612;1.572;2022-10-28T17:41:19;16.20;;;5.43;;
67737;SDS011;54534;43.612;1.572;2022-10-28T17:43:44;11.03;;;4.90;;
67737;SDS011;54534;43.612;1.572;2022-10-28T17:46:10;9.80;;;4.90;;
67737;SDS011;54534;43.612;1.572;2022-10-28T17:48:35;14.30;;;4.57;;
67737;SDS011;54534;43.612;1.572;2022-10-28T17:51:01;10.90;;;4.90;;
67737;SDS011;54534;43.612;1.572;2022-10-28T17:53:26;10.80;;;5.00;;
67737;SDS011;54534;43.612;1.572;2022-10-28T17:55:56;13.10;;;4.23;;
67737;SDS011;54534;43.612;1.572;2022-10-28T17:58:21;10.98;;;4.13;;
67737;SDS011;54534;43.612;1.572;2022-10-28T18:00:47;8.87;;;4.27;;
67737;SDS011;54534;43.612;1.572;2022-10-28T18:03:12;12.20;;;4.37;;
67737;SDS011;54534;43.612;1.572;2022-10-28T18:05:38;10.37;;;4.03;;
67737;SDS011;54534;43.612;1.572;2022-10-28T18:08:03;10.33;;;4.00;;
67737;SDS011;54534;43.612;1.572;2022-10-28T18:10:30;13.63;;;4.43;;
67737;SDS011;54534;43.612;1.572;2022-10-28T18:12:55;11.40;;;4.37;;